createdAt,value
2019-01-06T00:02:12.784Z,89.67
2019-01-06T00:04:42.889Z,89.67
2019-01-06T00:07:29.257Z,89.68
2019-01-06T00:10:15.660Z,89.78
2019-01-06T00:12:48.397Z,89.83
2019-01-06T00:15:30.195Z,89.47
2019-01-06T00:18:09.385Z,89.54
2019-01-06T00:20:42.525Z,89.46
2019-01-06T00:23:15.519Z,89.20
2019-01-06T00:25:45.584Z,89.15
2019-01-06T00:28:21.377Z,88.87
2019-01-06T00:30:56.943Z,88.75
2019-01-06T00:33:27.024Z,88.75
2019-01-06T00:36:03.052Z,88.58
2019-01-06T00:38:51.465Z,88.46
2019-01-06T00:41:21.577Z,88.45
2019-01-06T00:44:08.133Z,88.27
2019-01-06T00:46:41.023Z,88.32
2019-01-06T00:49:22.856Z,88.45
2019-01-06T00:52:09.305Z,88.45
2019-01-06T00:54:55.504Z,88.08
2019-01-06T00:57:28.037Z,88.12
2019-01-06T01:00:13.302Z,87.97
2019-01-06T01:02:43.449Z,87.90
2019-01-06T01:05:28.685Z,87.82
2019-01-06T01:08:14.608Z,87.63
2019-01-06T01:11:00.877Z,87.66
2019-01-06T01:13:45.932Z,87.35
2019-01-06T01:16:18.925Z,87.31
2019-01-06T01:18:51.969Z,87.33
2019-01-06T01:21:38.565Z,87.36
2019-01-06T01:24:14.281Z,87.05
2019-01-06T01:26:50.598Z,86.79
2019-01-06T01:29:37.142Z,86.54
2019-01-06T01:32:09.662Z,86.49
2019-01-06T01:34:39.749Z,86.48
2019-01-06T01:37:09.853Z,86.35
2019-01-06T01:39:39.933Z,86.20
2019-01-06T01:42:12.798Z,86.06
2019-01-06T01:44:42.878Z,85.86
2019-01-06T01:47:12.982Z,85.58
2019-01-06T01:49:55.320Z,85.39
2019-01-06T01:52:43.790Z,85.32
2019-01-06T01:55:13.868Z,85.03
2019-01-06T01:57:50.001Z,85.03
2019-01-06T02:00:38.565Z,84.74
2019-01-06T02:03:08.678Z,84.63
2019-01-06T02:05:55.128Z,84.54
2019-01-06T02:08:25.232Z,84.62
2019-01-06T02:11:01.004Z,84.77
2019-01-06T02:13:31.108Z,84.43
2019-01-06T02:16:07.016Z,84.36
2019-01-06T02:18:37.143Z,84.26
2019-01-06T02:21:23.082Z,84.87
2019-01-06T02:23:55.888Z,84.87
2019-01-06T02:26:40.709Z,84.31
2019-01-06T02:29:13.456Z,84.19
2019-01-06T02:31:43.533Z,84.08
2019-01-06T02:34:13.640Z,84.02
2019-01-06T02:37:00.158Z,83.84
2019-01-06T02:39:36.269Z,83.78
2019-01-06T02:42:22.740Z,83.87
2019-01-06T02:45:05.149Z,83.86
2019-01-06T02:47:40.667Z,83.87
2019-01-06T02:50:19.634Z,84.07
2019-01-06T02:52:49.713Z,83.77
2019-01-06T02:55:25.611Z,83.53
2019-01-06T02:57:58.614Z,83.20
2019-01-06T03:00:28.720Z,83.20
2019-01-06T03:03:11.041Z,83.13
2019-01-06T03:05:41.155Z,83.09
2019-01-06T03:08:11.229Z,83.02
2019-01-06T03:10:50.470Z,82.92
2019-01-06T03:13:36.711Z,82.81
2019-01-06T03:16:06.816Z,82.74
2019-01-06T03:18:45.675Z,82.85
2019-01-06T03:21:18.338Z,82.92
2019-01-06T03:23:51.353Z,82.99
2019-01-06T03:26:33.019Z,83.00
2019-01-06T03:29:15.362Z,82.65
2019-01-06T03:31:45.466Z,82.48
2019-01-06T03:34:33.878Z,82.97
2019-01-06T03:37:15.891Z,83.15
2019-01-06T03:39:55.229Z,83.02
2019-01-06T03:42:25.399Z,82.87
2019-01-06T03:45:11.669Z,82.63
2019-01-06T03:47:47.582Z,82.78
2019-01-06T03:50:20.643Z,83.22
2019-01-06T03:52:50.749Z,83.27
2019-01-06T03:55:37.336Z,83.48
2019-01-06T03:58:07.446Z,83.32
2019-01-06T04:00:37.523Z,83.31
2019-01-06T04:03:23.863Z,83.13
2019-01-06T04:06:10.325Z,83.06
2019-01-06T04:08:52.440Z,82.99
2019-01-06T04:11:40.653Z,82.95
2019-01-06T04:14:16.815Z,83.04
2019-01-06T04:17:03.071Z,83.16
2019-01-06T04:19:48.201Z,83.26
2019-01-06T04:22:27.449Z,83.16
2019-01-06T04:25:03.259Z,83.15
2019-01-06T04:27:45.102Z,83.16
2019-01-06T04:30:15.188Z,83.17
2019-01-06T04:32:54.114Z,83.25
2019-01-06T04:35:32.980Z,83.50
2019-01-06T04:38:19.203Z,83.71
2019-01-06T04:40:49.281Z,83.83
2019-01-06T04:43:28.251Z,83.68
2019-01-06T04:46:04.545Z,83.63
2019-01-06T04:48:34.651Z,83.52
2019-01-06T04:51:21.260Z,83.46
2019-01-06T04:53:51.364Z,83.42
2019-01-06T04:56:24.135Z,83.57
2019-01-06T04:59:06.007Z,83.76
2019-01-06T05:01:38.707Z,83.69
2019-01-06T05:04:11.294Z,83.54
2019-01-06T05:06:59.757Z,83.65
2019-01-06T05:09:42.077Z,83.68
2019-01-06T05:12:12.162Z,83.90
2019-01-06T05:14:42.269Z,83.94
2019-01-06T05:17:15.449Z,83.95
2019-01-06T05:20:00.616Z,84.01
2019-01-06T05:22:33.463Z,84.21
2019-01-06T05:25:19.933Z,84.40
2019-01-06T05:27:52.972Z,84.58
2019-01-06T05:30:32.004Z,84.78
2019-01-06T05:33:08.154Z,85.08
2019-01-06T05:35:38.265Z,85.26
2019-01-06T05:38:17.061Z,85.32
2019-01-06T05:40:49.905Z,85.40
2019-01-06T05:43:19.989Z,85.39
2019-01-06T05:45:59.338Z,85.48
2019-01-06T05:48:44.772Z,85.35
2019-01-06T05:51:14.877Z,85.42
2019-01-06T05:54:01.041Z,85.44
2019-01-06T05:56:34.101Z,85.35
2019-01-06T05:59:04.187Z,85.39
2019-01-06T06:01:34.293Z,85.35
2019-01-06T06:04:13.652Z,85.38
2019-01-06T06:06:43.756Z,85.32
2019-01-06T06:09:29.165Z,85.41
2019-01-06T06:12:19.582Z,85.46
2019-01-06T06:14:52.644Z,85.41
2019-01-06T06:17:28.437Z,85.19
2019-01-06T06:20:14.784Z,85.16
2019-01-06T06:22:47.543Z,85.24
2019-01-06T06:25:34.861Z,85.09
2019-01-06T06:28:04.968Z,85.02
2019-01-06T06:30:41.098Z,85.03
2019-01-06T06:33:27.594Z,85.05
2019-01-06T06:36:06.745Z,85.12
2019-01-06T06:38:36.824Z,85.13
2019-01-06T06:41:25.075Z,85.16
2019-01-06T06:44:01.032Z,85.15
2019-01-06T06:46:47.476Z,85.23
2019-01-06T06:49:20.210Z,85.32
2019-01-06T06:51:53.228Z,85.18
2019-01-06T06:54:26.097Z,85.34
2019-01-06T06:57:48.032Z,85.35
2019-01-06T07:00:55.133Z,85.42
2019-01-06T07:03:55.665Z,85.02
2019-01-06T07:06:42.284Z,84.93
2019-01-06T07:09:28.923Z,84.76
2019-01-06T07:11:59.036Z,84.70
2019-01-06T07:14:40.934Z,84.43
2019-01-06T07:18:06.842Z,84.50
2019-01-06T07:20:45.941Z,84.42
2019-01-06T07:23:31.100Z,84.05
2019-01-06T07:26:01.185Z,84.15
2019-01-06T07:28:46.068Z,84.05
2019-01-06T07:31:16.150Z,84.01
2019-01-06T07:33:49.226Z,83.94
2019-01-06T07:36:22.012Z,84.08
2019-01-06T07:38:52.121Z,84.04
2019-01-06T07:41:34.148Z,84.22
2019-01-06T07:44:04.253Z,84.12
2019-01-06T07:46:50.245Z,83.97
2019-01-06T07:49:32.401Z,84.07
2019-01-06T07:52:08.161Z,84.05
2019-01-06T07:54:53.328Z,83.84
2019-01-06T07:57:29.272Z,83.83
2019-01-06T07:59:59.379Z,83.62
2019-01-06T08:02:31.182Z,83.25
2019-01-06T08:05:13.327Z,83.07
2019-01-06T08:07:59.523Z,82.74
2019-01-06T08:10:47.934Z,82.48
2019-01-06T08:13:18.015Z,82.31
2019-01-06T08:15:48.119Z,82.20
2019-01-06T08:18:35.666Z,82.24
2019-01-06T08:21:17.864Z,82.10
2019-01-06T08:23:50.870Z,82.06
2019-01-06T08:26:26.958Z,82.21
2019-01-06T08:28:57.034Z,81.87
2019-01-06T08:31:27.144Z,81.77
2019-01-06T08:34:13.364Z,81.69
2019-01-06T08:36:43.482Z,81.77
2019-01-06T08:39:29.825Z,81.82
2019-01-06T08:42:16.094Z,81.77
2019-01-06T08:45:04.372Z,81.54
2019-01-06T08:47:50.604Z,81.37
2019-01-06T08:50:36.917Z,81.15
2019-01-06T08:53:09.905Z,80.89
2019-01-06T08:55:48.965Z,80.74
2019-01-06T08:58:31.409Z,80.68
2019-01-06T09:01:17.475Z,80.76
2019-01-06T09:03:47.559Z,81.00
2019-01-06T09:06:20.684Z,80.79
2019-01-06T09:08:53.725Z,80.68
2019-01-06T09:11:39.973Z,80.69
2019-01-06T09:14:26.361Z,80.72
2019-01-06T09:16:59.119Z,80.73
2019-01-06T09:19:41.345Z,80.78
2019-01-06T09:22:26.479Z,80.86
2019-01-06T09:25:02.511Z,80.50
2019-01-06T09:27:41.346Z,80.50
2019-01-06T09:30:27.460Z,80.50
2019-01-06T09:33:00.407Z,80.24
2019-01-06T09:35:48.869Z,80.31
2019-01-06T09:38:24.434Z,80.56
2019-01-06T09:40:56.947Z,79.23
2019-01-06T09:43:39.066Z,79.13
2019-01-06T09:46:09.144Z,78.93
2019-01-06T09:48:39.252Z,78.90
2019-01-06T09:51:21.672Z,78.90
2019-01-06T09:53:51.780Z,79.27
2019-01-06T09:56:38.181Z,79.27
2019-01-06T09:59:20.398Z,78.37
2019-01-06T10:01:50.563Z,78.37
2019-01-06T10:04:37.107Z,78.17
2019-01-06T10:07:15.919Z,78.17
2019-01-06T10:09:54.786Z,78.13
2019-01-06T10:12:24.884Z,78.20
2019-01-06T10:14:54.993Z,78.27
2019-01-06T10:17:34.210Z,78.41
2019-01-06T10:20:20.910Z,78.57
2019-01-06T10:23:07.426Z,78.64
2019-01-06T10:25:46.008Z,78.91
2019-01-06T10:28:32.303Z,79.13
2019-01-06T10:31:20.516Z,79.27
2019-01-06T10:34:02.612Z,79.24
2019-01-06T10:36:48.833Z,79.33
2019-01-06T10:39:18.942Z,78.30
2019-01-06T10:41:54.709Z,79.18
2019-01-06T10:44:24.808Z,79.18
2019-01-06T10:47:07.139Z,78.60
2019-01-06T10:49:53.718Z,78.48
2019-01-06T10:52:40.461Z,77.65
2019-01-06T10:55:19.878Z,77.26
2019-01-06T10:57:49.956Z,75.75
2019-01-06T11:00:35.052Z,75.75
2019-01-06T11:03:21.782Z,75.80
2019-01-06T11:06:08.392Z,76.01
2019-01-06T11:08:44.154Z,76.56
2019-01-06T11:11:16.669Z,76.18
2019-01-06T11:13:49.737Z,76.39
2019-01-06T11:16:19.920Z,76.42
2019-01-06T11:19:06.170Z,76.42
2019-01-06T11:21:52.165Z,76.45
2019-01-06T11:24:40.131Z,76.45
2019-01-06T11:27:10.241Z,76.19
2019-01-06T11:29:58.617Z,76.15
2019-01-06T11:32:29.060Z,76.17
2019-01-06T11:35:04.646Z,75.52
2019-01-06T11:37:37.670Z,75.52
2019-01-06T11:40:25.310Z,76.07
2019-01-06T11:43:04.249Z,76.06
2019-01-06T11:45:43.341Z,76.09
2019-01-06T11:48:22.577Z,76.42
2019-01-06T11:51:04.869Z,76.63
2019-01-06T11:53:34.946Z,76.63
2019-01-06T11:56:10.508Z,77.51
2019-01-06T11:58:55.622Z,77.51
2019-01-06T12:01:28.635Z,76.33
2019-01-06T12:04:13.752Z,75.80
2019-01-06T12:06:43.860Z,74.03
2019-01-06T12:09:30.269Z,74.03
2019-01-06T12:12:00.372Z,73.72
2019-01-06T12:14:30.457Z,73.72
2019-01-06T12:17:18.988Z,73.84
2019-01-06T12:19:55.033Z,73.75
2019-01-06T12:22:25.139Z,72.91
2019-01-06T12:25:04.021Z,72.91
2019-01-06T12:27:52.133Z,72.09
2019-01-06T12:30:34.516Z,72.25
2019-01-06T12:33:20.724Z,71.90
2019-01-06T12:35:50.871Z,71.88
2019-01-06T12:38:27.021Z,71.05
2019-01-06T12:40:59.984Z,71.22
2019-01-06T12:43:32.755Z,70.80
2019-01-06T12:46:02.838Z,70.80
2019-01-06T12:48:35.939Z,70.05
2019-01-06T12:51:15.208Z,69.79
2019-01-06T12:53:56.981Z,69.50
2019-01-06T12:56:43.268Z,69.50
2019-01-06T12:59:25.588Z,69.17
2019-01-06T13:02:07.651Z,69.15
2019-01-06T13:04:37.757Z,69.15
2019-01-06T13:07:26.182Z,68.83
2019-01-06T13:10:11.553Z,68.83
2019-01-06T13:12:41.637Z,69.53
2019-01-06T13:15:17.763Z,69.53
2019-01-06T13:17:47.845Z,69.66
2019-01-06T13:20:26.941Z,69.93
2019-01-06T13:23:13.241Z,69.43
2019-01-06T13:25:58.473Z,69.13
2019-01-06T13:28:44.797Z,69.13
2019-01-06T13:31:31.211Z,69.54
2019-01-06T13:34:01.311Z,69.32
2019-01-06T13:36:31.391Z,69.32
2019-01-06T13:39:10.207Z,69.28
2019-01-06T13:41:56.882Z,69.28
2019-01-06T13:44:26.991Z,69.80
2019-01-06T13:46:57.067Z,69.78
2019-01-06T13:49:43.550Z,70.06
2019-01-06T13:52:29.573Z,70.11
2019-01-06T13:54:59.692Z,70.06
2019-01-06T13:57:44.901Z,70.38
2019-01-06T14:00:15.073Z,70.81
2019-01-06T14:02:51.012Z,70.42
2019-01-06T14:05:24.308Z,70.42
2019-01-06T14:07:57.196Z,71.65
2019-01-06T14:10:27.304Z,71.12
2019-01-06T14:13:08.848Z,71.29
2019-01-06T14:15:38.953Z,71.36
2019-01-06T14:18:25.569Z,71.36
2019-01-06T14:21:11.026Z,72.29
2019-01-06T14:23:43.908Z,72.29
2019-01-06T14:26:31.496Z,71.99
2019-01-06T14:29:04.529Z,72.13
2019-01-06T14:31:43.744Z,72.78
2019-01-06T14:34:19.785Z,72.78
2019-01-06T14:36:49.888Z,72.65
2019-01-06T14:39:31.998Z,73.02
2019-01-06T14:42:20.356Z,73.40
2019-01-06T14:44:53.105Z,73.73
2019-01-06T14:47:23.212Z,73.79
2019-01-06T14:50:09.520Z,73.89
2019-01-06T14:52:54.952Z,74.14
2019-01-06T14:55:25.036Z,74.22
2019-01-06T14:58:11.365Z,74.22
2019-01-06T15:00:57.863Z,74.27
2019-01-06T15:03:27.946Z,74.47
2019-01-06T15:06:01.108Z,74.81
2019-01-06T15:08:40.177Z,74.93
2019-01-06T15:11:26.553Z,74.91
2019-01-06T15:14:13.141Z,75.06
2019-01-06T15:16:48.809Z,75.23
2019-01-06T15:19:37.039Z,75.95
2019-01-06T15:22:13.037Z,75.33
2019-01-06T15:24:46.130Z,75.33
2019-01-06T15:27:16.240Z,75.68
2019-01-06T15:29:55.462Z,75.95
2019-01-06T15:32:25.564Z,75.95
2019-01-06T15:35:04.719Z,75.89
2019-01-06T15:37:40.519Z,76.00
2019-01-06T15:40:26.510Z,76.03
2019-01-06T15:43:05.597Z,75.99
2019-01-06T15:45:52.118Z,76.02
2019-01-06T15:48:22.232Z,76.01
2019-01-06T15:51:04.231Z,76.08
2019-01-06T15:53:43.889Z,76.11
2019-01-06T15:56:19.916Z,76.30
2019-01-06T15:59:06.725Z,76.25
2019-01-06T16:01:42.517Z,76.25
2019-01-06T16:04:15.535Z,76.69
2019-01-06T16:07:01.481Z,76.63
2019-01-06T16:09:43.917Z,76.72
2019-01-06T16:12:30.086Z,76.60
2019-01-06T16:15:18.191Z,76.00
2019-01-06T16:18:04.294Z,76.00
2019-01-06T16:20:43.104Z,76.34
2019-01-06T16:23:19.220Z,76.25
2019-01-06T16:25:52.244Z,76.38
2019-01-06T16:28:38.585Z,76.43
2019-01-06T16:31:20.721Z,76.35
2019-01-06T16:34:07.341Z,76.30
2019-01-06T16:36:54.136Z,76.37
2019-01-06T16:39:40.216Z,76.40
2019-01-06T16:42:25.193Z,76.85
2019-01-06T16:44:57.761Z,77.32
2019-01-06T16:47:30.497Z,77.23
2019-01-06T16:50:06.293Z,77.35
2019-01-06T16:52:39.364Z,77.64
2019-01-06T16:55:15.052Z,77.54
2019-01-06T16:57:57.287Z,77.57
2019-01-06T17:00:27.397Z,77.83
2019-01-06T17:03:06.595Z,78.03
2019-01-06T17:05:36.706Z,77.93
2019-01-06T17:08:23.338Z,78.19
2019-01-06T17:10:56.105Z,78.39
2019-01-06T17:13:31.940Z,78.51
2019-01-06T17:16:04.807Z,78.65
2019-01-06T17:18:34.893Z,78.84
2019-01-06T17:21:17.221Z,78.92
2019-01-06T17:24:02.614Z,78.90
2019-01-06T17:26:32.717Z,78.93
2019-01-06T17:29:17.793Z,78.86
2019-01-06T17:32:03.762Z,78.72
2019-01-06T17:34:33.845Z,78.83
2019-01-06T17:37:03.954Z,79.01
2019-01-06T17:39:34.034Z,79.18
2019-01-06T17:42:16.002Z,79.39
2019-01-06T17:44:48.764Z,79.63
2019-01-06T17:47:27.591Z,79.73
2019-01-06T17:50:15.577Z,79.77
2019-01-06T17:53:03.743Z,79.68
2019-01-06T17:55:42.734Z,79.78
2019-01-06T17:58:15.520Z,80.12
2019-01-06T18:00:51.470Z,80.45
2019-01-06T18:03:21.559Z,80.61
2019-01-06T18:05:54.579Z,80.93
2019-01-06T18:08:36.827Z,81.30
2019-01-06T18:11:06.934Z,81.42
2019-01-06T18:13:37.023Z,81.40
2019-01-06T18:16:19.016Z,81.37
2019-01-06T18:18:55.113Z,81.41
2019-01-06T18:21:28.178Z,81.37
2019-01-06T18:24:03.741Z,81.28
2019-01-06T18:26:50.270Z,81.34
2019-01-06T18:29:20.573Z,81.30
2019-01-06T18:32:07.151Z,81.25
2019-01-06T18:34:49.391Z,81.37
2019-01-06T18:37:19.509Z,81.61
2019-01-06T18:39:52.347Z,81.78
2019-01-06T18:42:22.468Z,82.16
2019-01-06T18:44:52.554Z,82.45
2019-01-06T18:47:38.754Z,82.64
2019-01-06T18:50:27.171Z,82.88
2019-01-06T18:53:03.056Z,83.28
2019-01-06T18:55:44.878Z,83.44
2019-01-06T18:58:14.983Z,83.59
2019-01-06T19:01:00.986Z,83.78
2019-01-06T19:03:31.099Z,83.59
2019-01-06T19:06:07.015Z,83.33
2019-01-06T19:08:48.887Z,83.02
2019-01-06T19:11:21.775Z,82.99
2019-01-06T19:14:06.919Z,83.01
2019-01-06T19:16:37.149Z,82.97
2019-01-06T19:19:13.173Z,82.93
2019-01-06T19:21:59.658Z,82.93
2019-01-06T19:24:44.963Z,82.88
2019-01-06T19:27:15.054Z,82.74
2019-01-06T19:29:47.866Z,82.75
2019-01-06T19:32:33.284Z,82.76
2019-01-06T19:35:15.005Z,82.90
2019-01-06T19:38:01.191Z,82.90
2019-01-06T19:40:47.634Z,83.02
2019-01-06T19:43:17.722Z,83.03
2019-01-06T19:45:53.768Z,83.04
2019-01-06T19:48:35.605Z,83.13
2019-01-06T19:51:24.045Z,83.19
2019-01-06T19:54:10.598Z,83.24
2019-01-06T19:56:57.010Z,83.17
2019-01-06T19:59:38.898Z,83.13
2019-01-06T20:02:11.715Z,83.27
2019-01-06T20:04:41.831Z,83.41
2019-01-06T20:07:21.150Z,83.35
2019-01-06T20:10:07.741Z,83.31
2019-01-06T20:12:40.485Z,83.21
2019-01-06T20:15:26.626Z,83.19
2019-01-06T20:18:13.937Z,83.17
2019-01-06T20:20:59.354Z,83.17
2019-01-06T20:23:29.440Z,83.09
2019-01-06T20:26:14.839Z,83.07
2019-01-06T20:28:47.629Z,83.08
2019-01-06T20:31:33.345Z,83.14
2019-01-06T20:34:03.836Z,83.26
2019-01-06T20:36:46.234Z,83.35
2019-01-06T20:39:32.553Z,83.36
2019-01-06T20:42:08.766Z,83.48
2019-01-06T20:44:44.689Z,83.47
2019-01-06T20:47:17.503Z,83.57
2019-01-06T20:49:53.654Z,83.64
2019-01-06T20:52:41.992Z,83.61
2019-01-06T20:55:27.805Z,83.70
2019-01-06T20:58:10.215Z,83.87
2019-01-06T21:00:40.331Z,83.91
2019-01-06T21:03:16.538Z,84.04
2019-01-06T21:05:49.773Z,83.93
2019-01-06T21:08:36.083Z,83.96
2019-01-06T21:11:06.189Z,83.81
2019-01-06T21:13:52.693Z,83.86
2019-01-06T21:16:39.081Z,83.76
2019-01-06T21:19:21.197Z,83.50
2019-01-06T21:22:07.877Z,83.29
2019-01-06T21:24:37.966Z,83.22
2019-01-06T21:27:10.769Z,83.39
2019-01-06T21:29:49.564Z,83.44
2019-01-06T21:32:25.105Z,83.53
2019-01-06T21:34:57.901Z,83.67
2019-01-06T21:37:37.066Z,83.67
2019-01-06T21:40:24.209Z,83.80
2019-01-06T21:42:54.450Z,83.89
2019-01-06T21:45:36.789Z,83.94
2019-01-06T21:48:18.982Z,84.05
2019-01-06T21:51:01.101Z,84.25
2019-01-06T21:53:34.066Z,84.35
2019-01-06T21:56:06.610Z,84.34
2019-01-06T21:58:39.186Z,84.41
2019-01-06T22:01:12.217Z,84.54
2019-01-06T22:03:54.581Z,84.56
2019-01-06T22:06:24.670Z,84.84
2019-01-06T22:08:54.782Z,84.98
2019-01-06T22:11:30.585Z,85.11
2019-01-06T22:14:03.351Z,84.88
2019-01-06T22:16:33.433Z,85.11
2019-01-06T22:19:09.462Z,85.17
2019-01-06T22:21:51.579Z,85.34
2019-01-06T22:24:33.914Z,85.52
2019-01-06T22:27:20.207Z,85.68
2019-01-06T22:30:06.482Z,85.73
2019-01-06T22:32:39.390Z,85.88
2019-01-06T22:35:24.883Z,86.24
2019-01-06T22:37:57.923Z,86.28
2019-01-06T22:40:28.036Z,86.46
2019-01-06T22:42:58.118Z,86.60
2019-01-06T22:45:31.131Z,86.79
2019-01-06T22:48:01.219Z,87.12
2019-01-06T22:50:49.641Z,87.30
2019-01-06T22:53:19.728Z,87.34
2019-01-06T22:55:52.295Z,87.36
2019-01-06T22:58:40.661Z,87.43
2019-01-06T23:01:10.770Z,87.50
2019-01-06T23:03:49.623Z,87.40
2019-01-06T23:06:34.692Z,87.39
2019-01-06T23:09:20.958Z,87.53
2019-01-06T23:11:51.064Z,87.45
2019-01-06T23:14:21.150Z,87.29
2019-01-06T23:16:54.106Z,87.15
2019-01-06T23:19:40.535Z,87.05
2019-01-06T23:22:19.614Z,86.61
2019-01-06T23:24:58.655Z,86.13
2019-01-06T23:27:31.402Z,85.95
2019-01-06T23:30:07.206Z,85.72
2019-01-06T23:32:37.284Z,85.58
2019-01-06T23:35:10.184Z,85.35
2019-01-06T23:37:49.313Z,85.14
2019-01-06T23:40:31.505Z,84.95
2019-01-06T23:43:01.589Z,84.86
2019-01-06T23:45:48.097Z,84.91
2019-01-06T23:48:18.186Z,84.80
2019-01-06T23:51:06.350Z,84.63
2019-01-06T23:53:52.995Z,84.53
2019-01-06T23:56:25.779Z,84.45
2019-01-06T23:59:12.095Z,84.50
